Time;durP1;ratioP1;P1;durP2;ratioP2;P2;SDS_P1;SDS_P2;PMS_P1;PMS_P2;Temp;Humidity;BMP_temperature;BMP_pressure;BME280_temperature;BME280_humidity;BME280_pressure;Samples;Min_cycle;Max_cycle;Signal;HPM_P1;HPM_P2
2023/01/17 00:00:23;;;;;;;0.10;0.10;;;2.20;99.90;;;;;;5098389;28;20130;-92
2023/01/17 00:03:15;;;;;;;0.23;0.20;;;2.90;99.90;;;;;;5098397;27;20046;-92
2023/01/17 00:11:22;;;;;;;0.00;0.00;;;3.70;99.90;;;;;;5101322;28;20047;-92
2023/01/17 00:13:53;;;;;;;0.00;0.00;;;2.80;99.90;;;;;;5083082;28;20035;-93
2023/01/17 00:16:24;;;;;;;0.00;0.00;;;3.30;99.90;;;;;;5082177;28;20049;-93
2023/01/17 01:35:33;;;;;;;0.00;0.00;;;3.00;99.90;;;;;;5118278;27;20101;-92
2023/01/17 01:38:13;;;;;;;;;;;;;;;;;;;;;
2023/01/17 01:40:58;;;;;;;0.00;0.00;;;1.90;99.90;;;;;;5117589;27;20051;-92
2023/01/17 01:44:03;;;;;;;0.00;0.00;;;2.00;99.90;;;;;;5100964;27;20086;-92
2023/01/17 01:46:42;;;;;;;0.00;0.00;;;1.90;99.90;;;;;;5100971;27;20504;-92
2023/01/17 01:49:19;;;;;;;0.00;0.00;;;2.00;99.90;;;;;;5100803;27;20047;-93
2023/01/17 01:51:54;;;;;;;0.00;0.00;;;2.40;99.90;;;;;;5099429;27;20533;-92
2023/01/17 01:54:30;;;;;;;0.00;0.00;;;2.10;99.90;;;;;;5100909;27;20039;-93
2023/01/17 01:57:16;;;;;;;0.00;0.00;;;2.00;99.90;;;;;;5100407;27;20155;-92
2023/01/17 02:00:06;;;;;;;0.00;0.00;;;3.40;99.90;;;;;;5100774;27;20043;-93
2023/01/17 02:02:36;;;;;;;0.00;0.00;;;2.10;99.90;;;;;;5100353;27;20500;-92
2023/01/17 02:05:02;;;;;;;0.00;0.00;;;1.50;99.90;;;;;;5100180;27;20051;-92
2023/01/17 02:07:42;;;;;;;0.00;0.00;;;1.20;99.90;;;;;;5100720;27;20511;-92
2023/01/17 02:10:09;;;;;;;0.00;0.00;;;1.90;99.90;;;;;;5100620;27;20473;-92
2023/01/17 02:12:46;;;;;;;0.00;0.00;;;1.30;99.90;;;;;;5100198;27;20438;-92
2023/01/17 02:15:20;;;;;;;0.00;0.00;;;1.90;99.90;;;;;;5100618;27;20126;-93
2023/01/17 02:17:48;;;;;;;0.00;0.00;;;1.80;99.90;;;;;;5100051;27;20431;-92
2023/01/17 02:20:26;;;;;;;0.00;0.00;;;2.20;99.90;;;;;;5100261;27;20487;-92
2023/01/17 02:23:11;;;;;;;;;;;;;;;;;;;;;
2023/01/17 02:26:14;;;;;;;0.00;0.00;;;0.80;99.90;;;;;;5117379;27;20055;-92
2023/01/17 02:29:16;;;;;;;0.00;0.00;;;1.80;99.90;;;;;;5100370;27;20053;-92
2023/01/17 02:32:07;;;;;;;0.00;0.00;;;0.70;99.90;;;;;;5099628;27;20039;-92
2023/01/17 02:34:48;;;;;;;0.00;0.00;;;1.90;99.90;;;;;;5100038;27;20043;-93
2023/01/17 02:37:37;;;;;;;;;;;;;;;;;;;;;
2023/01/17 02:40:27;;;;;;;0.00;0.00;;;3.00;99.90;;;;;;5116505;27;20489;-92
2023/01/17 02:43:18;;;;;;;;;;;;;;;;;;;;;
2023/01/17 02:45:47;;;;;;;0.00;0.00;;;2.30;99.90;;;;;;5116332;27;20100;-92
2023/01/17 02:48:19;;;;;;;0.00;0.00;;;3.10;99.90;;;;;;5082772;27;20043;-92
2023/01/17 02:51:00;;;;;;;0.00;0.00;;;1.80;99.90;;;;;;5115871;27;20071;-92
2023/01/17 02:54:02;;;;;;;0.00;0.00;;;0.80;99.90;;;;;;5099406;27;20043;-92
2023/01/17 02:56:37;;;;;;;0.00;0.00;;;1.70;99.90;;;;;;5099250;27;20092;-92
2023/01/17 02:59:15;;;;;;;0.00;0.00;;;1.90;99.90;;;;;;5099324;27;20050;-92
2023/01/17 03:02:17;;;;;;;;;;;;;;;;;;;;;
2023/01/17 03:04:47;;;;;;;0.00;0.00;;;1.70;99.90;;;;;;5112796;28;20057;-91
2023/01/17 03:07:23;;;;;;;0.00;0.00;;;2.80;99.90;;;;;;5095768;28;20554;-91
2023/01/17 03:10:05;;;;;;;;;;;;;;;;;;;;;
2023/01/17 03:12:36;;;;;;;0.00;0.00;;;1.90;99.90;;;;;;5112406;28;20039;-92
2023/01/17 03:15:11;;;;;;;0.00;0.00;;;3.30;99.90;;;;;;5095155;28;20082;-91
2023/01/17 03:17:42;;;;;;;0.00;0.00;;;3.10;99.90;;;;;;5095449;28;20100;-91
2023/01/17 03:20:09;;;;;;;0.00;0.00;;;1.90;99.90;;;;;;5095250;28;20075;-92
2023/01/17 03:22:41;;;;;;;0.00;0.00;;;1.90;99.90;;;;;;5096053;28;20090;-92
2023/01/17 03:25:12;;;;;;;0.08;0.08;;;2.00;99.90;;;;;;5095408;28;20051;-92
2023/01/17 03:27:41;;;;;;;0.00;0.00;;;2.00;99.90;;;;;;5079208;28;20474;-92
2023/01/17 03:30:15;;;;;;;0.00;0.00;;;1.80;99.90;;;;;;5095494;28;20090;-92
2023/01/17 03:32:40;;;;;;;0.00;0.00;;;1.10;99.90;;;;;;5095728;28;20035;-91
2023/01/17 03:35:09;;;;;;;0.00;0.00;;;3.00;99.90;;;;;;5095337;28;20071;-92
2023/01/17 03:37:37;;;;;;;0.00;0.00;;;1.90;99.90;;;;;;5095306;28;20064;-92
2023/01/17 03:40:04;;;;;;;0.10;0.00;;;1.80;99.90;;;;;;5094761;28;20044;-92
2023/01/17 03:42:30;;;;;;;0.05;0.00;;;1.80;99.90;;;;;;5095328;28;20047;-92
2023/01/17 03:45:00;;;;;;;0.00;0.00;;;2.80;99.90;;;;;;5095045;28;20043;-92
2023/01/17 03:47:33;;;;;;;0.00;0.00;;;1.80;99.90;;;;;;5079932;28;20043;-92
2023/01/17 03:50:07;;;;;;;0.10;0.10;;;3.00;99.90;;;;;;5094983;28;20040;-91
2023/01/17 03:52:45;;;;;;;0.00;0.00;;;1.80;99.90;;;;;;5079646;28;20035;-91
2023/01/17 03:55:20;;;;;;;0.08;0.00;;;1.80;99.90;;;;;;5068240;28;20039;-91
2023/01/17 03:57:51;;;;;;;0.00;0.00;;;2.00;99.90;;;;;;5095603;28;20043;-91
2023/01/17 04:00:19;;;;;;;0.00;0.00;;;3.10;99.90;;;;;;5095148;28;20051;-92
2023/01/17 04:02:45;;;;;;;0.00;0.00;;;1.70;99.90;;;;;;5095572;28;20046;-92
2023/01/17 04:05:17;;;;;;;0.00;0.00;;;1.80;99.90;;;;;;5094834;28;20060;-91
2023/01/17 04:07:43;;;;;;;0.00;0.00;;;1.80;99.90;;;;;;5094969;28;20082;-91
2023/01/17 04:10:16;;;;;;;0.00;0.00;;;1.70;99.90;;;;;;5094685;28;20044;-93
2023/01/17 04:12:42;;;;;;;0.00;0.00;;;1.70;99.90;;;;;;5095199;28;20040;-92
2023/01/17 04:15:16;;;;;;;0.00;0.00;;;1.60;99.90;;;;;;5097699;28;20044;-92
2023/01/17 04:17:52;;;;;;;;;;;;;;;;;;;;;
2023/01/17 04:20:37;;;;;;;0.00;0.00;;;1.60;99.90;;;;;;5112411;28;20048;-92
2023/01/17 04:23:17;;;;;;;;;;;;;;;;;;;;;
2023/01/17 04:25:43;;;;;;;2.15;0.10;;;1.70;99.90;;;;;;5116167;28;20047;-91
2023/01/17 04:28:16;;;;;;;0.00;0.00;;;1.60;99.90;;;;;;5098685;28;20039;-92
2023/01/17 04:30:42;;;;;;;0.00;0.00;;;1.40;99.90;;;;;;5099258;28;20031;-91
2023/01/17 04:33:31;;;;;;;0.00;0.00;;;1.90;99.90;;;;;;5097962;28;20558;-91
2023/01/17 04:36:02;;;;;;;0.00;0.00;;;0.20;99.90;;;;;;5099326;28;20047;-92
2023/01/17 04:38:29;;;;;;;0.00;0.00;;;2.80;99.90;;;;;;5098178;28;20075;-92
2023/01/17 04:41:15;;;;;;;;;;;;;;;;;;;;;
2023/01/17 04:43:57;;;;;;;;;;;;;;;;;;;;;
2023/01/17 04:46:35;;;;;;;1.27;0.35;;;1.30;99.90;;;;;;5115988;28;20144;-92
2023/01/17 04:49:12;;;;;;;0.00;0.00;;;2.50;99.90;;;;;;5084457;28;20074;-91
2023/01/17 04:51:43;;;;;;;0.00;0.00;;;1.70;99.90;;;;;;5098125;28;20435;-92
2023/01/17 04:54:13;;;;;;;0.00;0.00;;;1.20;99.90;;;;;;5065894;28;20087;-92
2023/01/17 04:56:39;;;;;;;0.00;0.00;;;2.20;99.90;;;;;;5098504;28;20047;-91
2023/01/17 04:59:18;;;;;;;0.00;0.00;;;2.30;99.90;;;;;;5098383;28;20054;-92
2023/01/17 05:01:51;;;;;;;0.00;0.00;;;1.10;99.90;;;;;;5082297;28;20374;-92
2023/01/17 05:04:21;;;;;;;0.00;0.00;;;1.10;99.90;;;;;;5080650;28;20051;-92
2023/01/17 05:06:46;;;;;;;0.00;0.00;;;1.10;99.90;;;;;;5098368;28;20401;-92
2023/01/17 05:09:18;;;;;;;0.00;0.00;;;1.00;99.90;;;;;;5097749;28;20043;-92
2023/01/17 05:11:47;;;;;;;0.10;0.10;;;1.10;99.90;;;;;;5097736;28;20566;-92
2023/01/17 05:14:25;;;;;;;0.00;0.00;;;2.10;99.90;;;;;;5098434;28;20047;-92
2023/01/17 05:17:02;;;;;;;0.00;0.00;;;0.90;99.90;;;;;;5098611;28;20489;-92
2023/01/17 05:19:35;;;;;;;0.00;0.00;;;2.30;99.90;;;;;;5064444;28;20075;-92
2023/01/17 05:22:09;;;;;;;0.00;0.00;;;1.80;99.90;;;;;;5081666;28;20044;-92
2023/01/17 05:24:39;;;;;;;0.00;0.00;;;1.00;99.90;;;;;;5097968;28;20044;-92
2023/01/17 05:27:10;;;;;;;0.03;0.03;;;2.10;99.90;;;;;;5097592;28;20047;-93
2023/01/17 05:29:43;;;;;;;0.00;0.00;;;2.20;99.90;;;;;;5081296;28;20048;-92
2023/01/17 05:32:19;;;;;;;;;;;;;;;;;;;;;
2023/01/17 05:34:49;;;;;;;0.00;0.00;;;0.80;99.90;;;;;;5114851;28;20047;-92
2023/01/17 05:37:24;;;;;;;0.00;0.00;;;2.20;99.90;;;;;;5081129;28;20044;-92
2023/01/17 05:40:22;;;;;;;0.00;0.00;;;0.00;99.90;;;;;;5097930;28;20046;-93
2023/01/17 05:42:55;;;;;;;0.00;0.00;;;0.90;99.90;;;;;;5098001;28;20044;-93
2023/01/17 05:45:29;;;;;;;0.00;0.00;;;0.60;99.90;;;;;;5080791;28;20069;-92
2023/01/17 05:48:21;;;;;;;;;;;;;;;;;;;;;
2023/01/17 05:50:53;;;;;;;0.00;0.00;;;0.70;99.90;;;;;;5085395;28;20043;-92
2023/01/17 05:53:40;;;;;;;;;;;;;;;;;;;;;
2023/01/17 05:56:06;;;;;;;0.00;0.00;;;1.80;99.90;;;;;;5114573;28;20396;-92
2023/01/17 05:58:44;;;;;;;0.00;0.00;;;0.30;99.90;;;;;;5097153;28;20293;-93
2023/01/17 06:01:13;;;;;;;0.00;0.00;;;1.00;99.90;;;;;;5097108;28;20371;-93
2023/01/17 06:03:39;;;;;;;0.00;0.00;;;0.40;99.90;;;;;;5096722;28;20101;-93
2023/01/17 06:06:08;;;;;;;0.00;0.00;;;0.80;99.90;;;;;;5096954;28;20051;-93
2023/01/17 06:08:38;;;;;;;0.10;0.10;;;0.10;99.90;;;;;;5100025;27;20651;-92
2023/01/17 06:11:05;;;;;;;0.00;0.00;;;0.20;99.90;;;;;;5100402;27;20055;-92
2023/01/17 06:13:36;;;;;;;0.00;0.00;;;0.00;99.90;;;;;;5100076;27;20043;-92
2023/01/17 06:16:06;;;;;;;0.00;0.00;;;-0.40;99.90;;;;;;5084223;27;20427;-92
2023/01/17 06:18:35;;;;;;;0.00;0.00;;;0.00;99.90;;;;;;5100136;27;20568;-92
2023/01/17 06:21:11;;;;;;;0.00;0.00;;;1.00;99.90;;;;;;5100863;27;20140;-92
2023/01/17 06:23:42;;;;;;;0.70;0.05;;;0.20;99.90;;;;;;5100932;27;20055;-92
2023/01/17 06:26:23;;;;;;;0.00;0.00;;;1.20;99.90;;;;;;5099980;27;20049;-92
2023/01/17 06:28:49;;;;;;;0.35;0.05;;;0.00;99.90;;;;;;5083963;27;20049;-91
2023/01/17 06:31:15;;;;;;;0.20;0.20;;;-0.10;99.90;;;;;;5099367;27;20556;-92
2023/01/17 06:33:44;;;;;;;0.00;0.00;;;1.10;99.90;;;;;;5100107;27;20481;-92
2023/01/17 06:36:20;;;;;;;0.00;0.00;;;1.20;99.90;;;;;;5083859;27;20312;-91
2023/01/17 06:39:04;;;;;;;;;;;;;;;;;;;;;
2023/01/17 06:41:31;;;;;;;0.00;0.00;;;0.00;99.90;;;;;;5100801;27;20558;-91
2023/01/17 06:44:06;;;;;;;0.00;0.00;;;1.30;99.90;;;;;;5099754;27;20055;-93
2023/01/17 06:46:37;;;;;;;0.00;0.00;;;0.00;99.90;;;;;;5099759;27;20039;-92
2023/01/17 06:49:02;;;;;;;0.00;0.00;;;1.40;99.90;;;;;;5099619;27;20080;-92
2023/01/17 06:51:36;;;;;;;0.00;0.00;;;-0.80;99.90;;;;;;5099203;27;20122;-92
2023/01/17 06:54:24;;;;;;;;;;;;;;;;;;;;;
2023/01/17 06:56:58;;;;;;;0.00;0.00;;;0.10;99.90;;;;;;5088644;27;20147;-92
2023/01/17 06:59:36;;;;;;;0.00;0.00;;;0.20;99.90;;;;;;5066575;27;20124;-92
2023/01/17 07:02:07;;;;;;;0.00;0.00;;;0.70;99.90;;;;;;5083562;27;20056;-91
2023/01/17 07:04:43;;;;;;;0.00;0.00;;;1.10;99.90;;;;;;5079060;28;20108;-92
2023/01/17 07:07:26;;;;;;;0.00;0.00;;;-0.60;99.90;;;;;;5096134;28;20040;-92
2023/01/17 07:09:52;;;;;;;0.00;0.00;;;1.10;99.90;;;;;;5096387;28;20046;-92
2023/01/17 07:12:34;;;;;;;0.10;0.10;;;-0.10;99.90;;;;;;5095565;28;20048;-92
2023/01/17 07:15:02;;;;;;;0.00;0.00;;;-1.00;99.90;;;;;;5096456;28;20371;-92
2023/01/17 07:17:34;;;;;;;0.00;0.00;;;0.00;99.90;;;;;;5096223;28;20047;-92
2023/01/17 07:20:07;;;;;;;0.00;0.00;;;1.30;99.90;;;;;;5096659;28;20107;-92
2023/01/17 07:22:36;;;;;;;0.00;0.00;;;-0.10;99.90;;;;;;5079376;28;20040;-92
2023/01/17 07:25:08;;;;;;;0.00;0.00;;;0.90;99.90;;;;;;5096015;28;20099;-92
2023/01/17 07:27:46;;;;;;;0.00;0.00;;;0.00;99.90;;;;;;5095768;28;20050;-92
2023/01/17 07:33:22;;;;;;;0.00;0.00;;;-0.30;99.90;;;;;;5098649;28;20084;-92
2023/01/17 07:35:52;;;;;;;0.00;0.00;;;0.00;99.90;;;;;;5095973;28;20431;-92
2023/01/17 07:38:28;;;;;;;0.20;0.20;;;1.20;99.90;;;;;;5079409;28;20126;-93
2023/01/17 07:41:07;;;;;;;0.00;0.00;;;-0.10;99.90;;;;;;5078402;28;20094;-91
2023/01/17 07:43:46;;;;;;;;;;;;;;;;;;;;;
2023/01/17 07:46:15;;;;;;;0.00;0.00;;;1.40;99.90;;;;;;5097518;28;20517;-92
2023/01/17 07:48:43;;;;;;;0.00;0.00;;;-0.50;99.90;;;;;;5096377;28;20051;-92
2023/01/17 07:51:36;;;;;;;0.00;0.00;;;0.10;99.90;;;;;;5099868;28;20083;-92
2023/01/17 07:54:11;;;;;;;0.00;0.00;;;0.10;99.90;;;;;;5099866;28;20040;-92
2023/01/17 07:56:46;;;;;;;0.00;0.00;;;0.10;99.90;;;;;;5099683;28;20485;-92
2023/01/17 07:59:38;;;;;;;;;;;;;;;;;;;;;
2023/01/17 08:02:16;;;;;;;0.00;0.00;;;-0.10;99.90;;;;;;5117009;28;20057;-93
2023/01/17 08:04:42;;;;;;;0.03;0.03;;;0.10;99.90;;;;;;5099336;28;20059;-92
2023/01/17 08:07:23;;;;;;;0.10;0.03;;;0.60;99.90;;;;;;5099868;28;20130;-92
2023/01/17 08:10:01;;;;;;;0.10;0.08;;;0.20;99.90;;;;;;5099789;28;20482;-92
2023/01/17 08:12:37;;;;;;;0.00;0.00;;;0.10;99.90;;;;;;5099687;28;20036;-93
2023/01/17 08:15:06;;;;;;;0.00;0.00;;;1.60;99.90;;;;;;5083756;28;20496;-92
2023/01/17 08:17:32;;;;;;;0.00;0.00;;;0.10;99.90;;;;;;5099799;28;20052;-92
2023/01/17 08:19:59;;;;;;;0.00;0.00;;;0.10;99.90;;;;;;5099589;28;20040;-93
2023/01/17 08:22:30;;;;;;;0.00;0.00;;;1.20;99.90;;;;;;5099853;28;20485;-92
2023/01/17 08:28:31;;;;;;;0.00;0.00;;;-0.70;99.90;;;;;;5117386;28;20488;-92
2023/01/17 08:34:13;;;;;;;0.00;0.00;;;2.00;99.90;;;;;;5117472;28;20051;-92
2023/01/17 08:36:44;;;;;;;0.00;0.00;;;0.60;99.90;;;;;;5099428;28;20092;-91
2023/01/17 08:39:26;;;;;;;;;;;;;;;;;;;;;
2023/01/17 08:50:01;;;;;;;0.00;0.00;;;0.80;99.90;;;;;;5117084;28;20030;-93
2023/01/17 08:52:40;;;;;;;;;;;;;;;;;;;;;
2023/01/17 08:55:39;;;;;;;0.00;0.00;;;2.00;99.90;;;;;;5054306;28;20044;-93
2023/01/17 08:58:14;;;;;;;0.00;0.00;;;0.80;99.90;;;;;;5083460;28;20058;-92
2023/01/17 09:00:42;;;;;;;0.00;0.00;;;1.00;99.90;;;;;;5098554;28;20055;-92
2023/01/17 09:03:19;;;;;;;0.00;0.00;;;0.90;99.90;;;;;;5099605;28;20039;-92
2023/01/17 09:10:11;;;;;;;0.00;0.00;;;1.10;99.90;;;;;;5116941;28;20079;-92
2023/01/17 09:12:40;;;;;;;0.00;0.00;;;0.10;99.90;;;;;;5098563;28;20122;-93
2023/01/17 09:15:18;;;;;;;;;;;;;;;;;;;;;
2023/01/17 09:25:23;;;;;;;0.00;0.00;;;0.60;99.90;;;;;;5050131;28;20066;-92
2023/01/17 09:31:38;;;;;;;0.00;0.00;;;1.90;99.90;;;;;;5116195;28;20494;-92
2023/01/17 09:38:53;;;;;;;0.10;0.10;;;1.00;99.90;;;;;;5072727;28;20082;-92
2023/01/17 09:41:43;;;;;;;0.00;0.00;;;2.40;99.90;;;;;;5028317;28;20048;-92
2023/01/17 09:44:34;;;;;;;0.00;0.00;;;2.60;99.90;;;;;;5090084;28;20142;-92
2023/01/17 09:47:17;;;;;;;0.00;0.00;;;2.60;99.90;;;;;;5085418;28;20040;-92
2023/01/17 09:49:45;;;;;;;0.00;0.00;;;3.30;99.90;;;;;;5098095;28;20131;-92
2023/01/17 09:52:22;;;;;;;0.10;0.00;;;3.60;99.90;;;;;;5081302;28;20085;-92
2023/01/17 09:55:01;;;;;;;0.00;0.00;;;2.70;99.90;;;;;;5097185;28;20039;-91
2023/01/17 10:01:24;;;;;;;0.15;0.15;;;2.60;99.90;;;;;;5043802;28;20097;-92
2023/01/17 10:04:16;;;;;;;0.10;0.10;;;3.00;99.90;;;;;;5072942;28;20363;-92
2023/01/17 10:07:13;;;;;;;0.20;0.20;;;3.10;99.90;;;;;;5081158;28;20378;-92
2023/01/17 10:09:56;;;;;;;0.00;0.00;;;3.40;99.90;;;;;;5080419;28;20046;-92
2023/01/17 10:12:50;;;;;;;0.00;0.00;;;3.50;99.90;;;;;;5079882;28;20048;-92
2023/01/17 10:15:24;;;;;;;0.00;0.00;;;3.90;99.90;;;;;;5043732;28;20059;-91
2023/01/17 10:18:04;;;;;;;0.00;0.00;;;4.10;99.90;;;;;;5080459;28;20508;-92
2023/01/17 10:24:29;;;;;;;0.00;0.00;;;4.50;99.90;;;;;;5076065;28;20080;-92
2023/01/17 10:26:56;;;;;;;1.48;0.52;;;5.00;99.90;;;;;;5079813;28;20043;-92
2023/01/17 10:32:51;;;;;;;0.20;0.10;;;5.30;99.90;;;;;;5087939;28;20082;-92
2023/01/17 10:35:28;;;;;;;0.10;0.10;;;5.60;99.90;;;;;;5079621;28;20055;-92
2023/01/17 10:37:59;;;;;;;0.00;0.00;;;5.70;99.90;;;;;;5079878;28;20048;-92
2023/01/17 10:40:39;;;;;;;0.05;0.05;;;5.60;99.90;;;;;;5079767;28;20138;-92
2023/01/17 10:43:36;;;;;;;0.10;0.10;;;6.10;99.90;;;;;;5080036;28;20044;-92
2023/01/17 10:50:17;;;;;;;0.00;0.00;;;6.20;99.90;;;;;;5114680;28;20068;-91
2023/01/17 10:53:09;;;;;;;0.00;0.00;;;6.20;99.90;;;;;;5065655;28;20043;-91
2023/01/17 10:55:55;;;;;;;0.00;0.00;;;6.30;99.90;;;;;;5079859;28;20050;-92
2023/01/17 11:03:19;;;;;;;0.35;0.30;;;6.20;99.90;;;;;;5051859;28;20040;-92
2023/01/17 11:16:01;;;;;;;0.00;0.00;;;6.20;99.90;;;;;;5051682;28;20052;-93
2023/01/17 17:38:53;;;;;;;0.03;0.03;;;1.40;99.90;;;;;;5112340;28;20050;-94
2023/01/17 17:49:07;;;;;;;0.10;0.10;;;2.40;99.90;;;;;;5115716;28;20039;-94
2023/01/17 18:39:11;;;;;;;0.70;0.30;;;0.70;99.90;;;;;;5109065;28;20055;-95
2023/01/17 18:56:46;;;;;;;0.00;0.00;;;0.70;99.90;;;;;;5032830;28;20080;-95
2023/01/17 19:18:43;;;;;;;0.20;0.20;;;0.40;99.90;;;;;;5113720;28;20031;-96
2023/01/17 19:25:07;;;;;;;0.25;0.17;;;0.30;99.90;;;;;;5114888;28;20043;-94
2023/01/17 19:32:02;;;;;;;;;;;;;;;;;;;;;
2023/01/17 19:42:24;;;;;;;0.10;0.10;;;0.20;99.90;;;;;;5114568;28;20655;-94
2023/01/17 19:52:40;;;;;;;0.30;0.30;;;0.20;99.90;;;;;;5119289;28;19923;-93
2023/01/17 19:59:12;;;;;;;1.50;0.28;;;0.10;99.90;;;;;;5118822;28;20442;-94
2023/01/17 20:01:53;;;;;;;;;;;;;;;;;;;;;
2023/01/17 20:04:48;;;;;;;0.10;0.10;;;0.20;99.90;;;;;;5056695;28;20112;-94
2023/01/17 20:11:22;;;;;;;0.30;0.20;;;0.00;99.90;;;;;;5056555;28;20075;-94
2023/01/17 20:17:58;;;;;;;0.20;0.20;;;0.00;99.90;;;;;;5118382;28;20108;-93
2023/01/17 20:24:25;;;;;;;;;;;0.00;99.90;;;;;;5118764;28;20120;-93
2023/01/17 20:37:51;;;;;;;0.08;0.08;;;-0.10;99.90;;;;;;5015096;28;20045;-93
2023/01/17 20:44:36;;;;;;;0.40;0.40;;;-0.10;99.90;;;;;;5013789;28;20423;-94
2023/01/17 20:50:50;;;;;;;0.15;0.15;;;-0.90;99.90;;;;;;5014989;28;20495;-93
2023/01/17 21:01:23;;;;;;;0.10;0.10;;;0.00;99.90;;;;;;5118076;28;20061;-93
2023/01/17 21:07:30;;;;;;;0.30;0.30;;;-0.10;99.90;;;;;;5117598;28;20025;-93
2023/01/17 21:10:00;;;;;;;0.03;0.03;;;0.00;99.90;;;;;;5082950;28;20583;-93
2023/01/17 21:12:31;;;;;;;0.10;0.10;;;1.20;99.90;;;;;;5083078;28;20035;-94
2023/01/17 21:15:16;;;;;;;0.20;0.20;;;1.40;99.90;;;;;;5082003;28;20135;-94
2023/01/17 21:22:04;;;;;;;0.98;0.35;;;-0.10;99.90;;;;;;5095320;28;20111;-93
2023/01/17 21:34:42;;;;;;;0.43;0.43;;;-0.10;99.90;;;;;;5054716;28;20110;-94
2023/01/17 21:37:10;;;;;;;0.00;0.00;;;0.10;99.90;;;;;;5023605;28;20537;-93
2023/01/17 21:39:55;;;;;;;;;;;;;;;;;;;;;
2023/01/17 21:46:50;;;;;;;0.80;0.40;;;0.00;99.90;;;;;;5017901;28;20054;-94
2023/01/17 21:49:46;;;;;;;0.10;0.10;;;-1.00;99.90;;;;;;4970232;28;20053;-93
2023/01/17 22:03:16;;;;;;;0.03;0.03;;;-0.30;99.90;;;;;;5013943;28;20495;-94
2023/01/17 22:06:00;;;;;;;;;;;;;;;;;;;;;
2023/01/17 22:08:38;;;;;;;0.65;0.65;;;-0.20;99.90;;;;;;4999305;28;20089;-94
2023/01/17 22:11:18;;;;;;;1.13;0.22;;;-0.80;99.90;;;;;;4997819;28;20049;-93
2023/01/17 22:17:37;;;;;;;0.10;0.10;;;-0.30;99.90;;;;;;5033403;28;20108;-94
2023/01/17 22:20:25;;;;;;;0.25;0.17;;;-0.30;99.90;;;;;;4985884;28;20046;-93
2023/01/17 22:26:39;;;;;;;0.10;0.10;;;-0.40;99.90;;;;;;5033713;28;20036;-93
2023/01/17 22:32:56;;;;;;;0.08;0.08;;;-0.30;99.90;;;;;;5096097;28;20047;-93
2023/01/17 22:58:28;;;;;;;0.03;0.03;;;-0.60;99.90;;;;;;5080924;28;20098;-93
2023/01/17 23:19:20;;;;;;;0.20;0.20;;;-0.60;99.90;;;;;;6166744;22;2950631;-93
2023/01/17 23:20:08;;;;;;;0.15;0.15;;;0.20;99.90;;;;;;6285486;22;20494;-94
2023/01/17 23:22:34;;;;;;;0.30;0.20;;;-0.50;99.90;;;;;;6260223;22;20019;-94
2023/01/17 23:25:06;;;;;;;3.23;0.20;;;-0.60;99.90;;;;;;6259948;22;20038;-95
2023/01/17 23:30:46;;;;;;;0.20;0.20;;;0.70;99.90;;;;;;6285762;22;20019;-94
2023/01/17 23:37:15;;;;;;;0.75;0.32;;;-0.70;99.90;;;;;;6234076;22;20056;-94
2023/01/17 23:39:42;;;;;;;0.10;0.10;;;0.60;99.90;;;;;;6284231;22;20344;-94
2023/01/17 23:45:14;;;;;;;0.20;0.15;;;-0.70;99.90;;;;;;6286487;22;20339;-94
2023/01/17 23:47:56;;;;;;;;;;;;;;;;;;;;;
2023/01/17 23:50:25;;;;;;;0.13;0.10;;;0.00;99.90;;;;;;6261869;22;20020;-95
2023/01/17 23:52:54;;;;;;;0.15;0.15;;;-1.30;99.90;;;;;;6259465;22;20081;-93
2023/01/17 23:55:45;;;;;;;1.42;1.08;;;0.10;99.90;;;;;;6259518;22;20023;-94
2023/01/17 23:58:31;;;;;;;0.52;0.50;;;0.50;99.90;;;;;;6238934;22;20099;-95
